Aérodrome :
LOGIN :

S'inscrire | Disclaimer

   EN    FR    IT 

 










Légende :    VFR   VFR Marginal   IFR   IFR Intensif   IFR Très Intensif
Visi : 
Plafond : 
>= 8 km
>= 3000ft
5 à 8 km
1000 à 3000 ft
1500m à 5 km
500 à 1000 ft
800 à 1500m
200 à 500 ft
< 800m
< 200 ft
Symboles :   Orages  Brouillard  Fortes neiges  Fortes précipitations  Vent > 20 kt
SIGMETs :   Divers  Orages  Givrage  Turbulence  Onde Orograph.  Cendres Volcan.






- Altitude de l'aérodrome : 26 ft
- Code IATA : SYY


EGPO - Stornoway

DERNIER METAR :
  • 270120Z AUTO 24009KT 9999 NCD 01/M01 Q0991

METARs EXPIRÉS :
  • 270050Z AUTO 24009KT 9999 -SN FEW037/// 01/M01 Q0992
  • 270020Z AUTO 24009KT 9999 FEW029/// 00/M01 Q0992
  • 262350Z AUTO 25003KT 9999 NCD M00/M02 Q0992
  • 262320Z AUTO 22007KT 9999 NCD 00/M01 Q0992
  • 262250Z AUTO 23010KT 200V270 2700 -SN FEW006/// SCT018/// BKN035/// 01/M00 Q0993

TAF TAF EGPO
Valide du 27 à 00h jusqu'au 27 à 09h UTC


262258Z 2700/2709 24009KT 9999 FEW020
TEMPO 2700/2709 25015G25KT 5000 SHRASN SHRAGS BKN010CB
PROB40
TEMPO 2700/2709 1200 SHSN
ATIS : +44 1851 707 444



MET'MAP, la Météo Aéronautique d'un coup d'oeil ! - Copyright ORBIFLY Décembre 2007 - Disclaimer

ORBIFLY MET'MAP TEAM :

Programmation & Développement : Alexandra Zaïnal
Sur une idée originale de : Baudouin d'Aumeries
Assistance à la programmation : Marc-Olivier Méhu
Soutien technique & logistique : Manuel Goepfert

Contact : metmap@orbifly.com




SOURCES & CREDITS :

   NOAA